createdAt,value
2022-09-29T00:02:34.730Z,1.50
2022-09-29T00:08:00.818Z,1.33
2022-09-29T00:13:38.328Z,1.75
2022-09-29T00:18:44.692Z,1.60
2022-09-29T00:23:53.446Z,1.30
2022-09-29T00:29:08.207Z,1.52
2022-09-29T00:34:12.630Z,1.42
2022-09-29T00:39:17.422Z,1.60
2022-09-29T00:45:00.860Z,1.73
2022-09-29T00:50:31.495Z,1.50
2022-09-29T00:55:45.998Z,1.20
2022-09-29T01:11:34.512Z,2.05
2022-09-29T01:16:47.702Z,1.67
2022-09-29T01:22:28.242Z,1.45
2022-09-29T01:28:06.700Z,2.42
2022-09-29T01:33:52.726Z,2.40
2022-09-29T01:39:52.280Z,2.80
2022-09-29T01:45:42.095Z,2.95
2022-09-29T01:51:00.207Z,2.55
2022-09-29T01:56:19.251Z,2.50
2022-09-29T02:01:43.787Z,2.78
2022-09-29T02:07:09.806Z,2.70
2022-09-29T02:12:26.258Z,2.25
2022-09-29T02:17:39.495Z,3.08
2022-09-29T02:22:52.244Z,2.63
2022-09-29T02:28:03.293Z,2.42
2022-09-29T02:33:07.505Z,2.53
2022-09-29T02:38:28.121Z,2.40
2022-09-29T02:44:16.446Z,2.05
2022-09-29T02:49:44.168Z,2.15
2022-09-29T02:55:10.896Z,2.22
2022-09-29T03:06:55.467Z,2.13
2022-09-29T03:11:58.600Z,2.30
2022-09-29T03:17:00.540Z,2.30
2022-09-29T03:22:03.978Z,2.40
2022-09-29T03:27:06.549Z,2.13
2022-09-29T03:32:08.549Z,2.10
2022-09-29T03:37:10.452Z,2.45
2022-09-29T03:42:12.468Z,2.60
2022-09-29T03:47:14.513Z,2.40
2022-09-29T03:52:16.493Z,2.58
2022-09-29T03:57:18.655Z,2.92
2022-09-29T04:02:21.136Z,2.38
2022-09-29T04:07:23.151Z,1.98
2022-09-29T04:37:21.722Z,1.70
2022-09-29T04:42:24.018Z,1.40
2022-09-29T04:47:27.157Z,1.88
2022-09-29T04:52:29.496Z,1.58
2022-09-29T04:57:37.207Z,1.05
2022-09-29T05:02:41.399Z,0.98
2022-09-29T05:07:44.774Z,1.10
2022-09-29T05:12:51.104Z,0.98
2022-09-29T05:17:53.421Z,0.80
2022-09-29T05:22:57.642Z,1.08
2022-09-29T05:28:02.169Z,1.00
2022-09-29T05:33:08.710Z,1.08
2022-09-29T05:38:13.331Z,1.20
2022-09-29T05:43:24.109Z,1.45
2022-09-29T05:48:27.051Z,1.05
2022-09-29T05:53:32.432Z,1.10
2022-09-29T05:58:34.740Z,1.20
2022-09-29T06:03:42.084Z,1.20
2022-09-29T06:08:45.013Z,1.27
2022-09-29T06:13:49.503Z,1.20
2022-09-29T06:18:51.914Z,1.10
2022-09-29T06:23:55.310Z,1.40
2022-09-29T06:28:59.017Z,1.00
2022-09-29T06:34:06.547Z,0.80
2022-09-29T06:39:18.516Z,1.10
2022-09-29T06:44:22.069Z,1.55
2022-09-29T06:49:27.946Z,1.20
2022-09-29T06:54:31.608Z,1.40
2022-09-29T06:59:35.866Z,1.33
2022-09-29T07:04:41.161Z,1.13
2022-09-29T07:09:43.411Z,1.33
2022-09-29T07:14:48.112Z,1.88
2022-09-29T07:19:50.138Z,1.92
2022-09-29T07:24:54.137Z,1.83
2022-09-29T07:30:04.090Z,1.80
2022-09-29T07:35:10.111Z,2.65
2022-09-29T07:40:14.097Z,2.90
2022-09-29T07:45:17.700Z,3.05
2022-09-29T07:50:19.609Z,2.78
2022-09-29T07:55:24.059Z,2.17
2022-09-29T08:00:26.193Z,2.70
2022-09-29T08:05:29.364Z,2.60
2022-09-29T08:10:36.111Z,2.10
2022-09-29T08:20:47.755Z,1.90
2022-09-29T08:25:59.813Z,1.60
2022-09-29T08:31:08.336Z,1.77
2022-09-29T08:36:16.602Z,1.83
2022-09-29T08:41:49.314Z,1.20
2022-09-29T08:47:10.014Z,1.52
2022-09-29T08:52:18.578Z,1.42
2022-09-29T08:57:21.100Z,1.70
2022-09-29T09:02:56.712Z,1.60
2022-09-29T09:08:40.223Z,1.55
2022-09-29T09:13:58.298Z,1.30
2022-09-29T09:19:36.034Z,1.40
2022-09-29T09:25:06.083Z,1.02
2022-09-29T09:30:18.801Z,1.20
2022-09-29T09:35:55.211Z,1.17
2022-09-29T09:41:03.107Z,1.20
2022-09-29T09:46:37.244Z,1.45
2022-09-29T09:57:35.600Z,1.00
2022-09-29T10:03:05.539Z,0.95
2022-09-29T10:08:12.607Z,1.00
2022-09-29T10:13:16.097Z,1.10
2022-09-29T10:18:23.103Z,1.20
2022-09-29T10:23:34.789Z,1.20
2022-09-29T10:33:57.104Z,1.27
2022-09-29T10:39:03.271Z,0.90
2022-09-29T10:44:21.720Z,1.20
2022-09-29T10:49:28.238Z,1.30
2022-09-29T10:54:35.562Z,1.30
2022-09-29T10:59:49.904Z,1.33
2022-09-29T11:04:56.754Z,1.20
2022-09-29T11:10:23.708Z,1.13
2022-09-29T11:15:28.913Z,1.48
2022-09-29T11:20:35.367Z,1.20
2022-09-29T11:26:16.690Z,1.25
2022-09-29T11:31:38.776Z,0.90
2022-09-29T11:36:54.732Z,1.40
2022-09-29T11:42:42.083Z,1.10
2022-09-29T11:47:55.374Z,1.10
2022-09-29T11:53:27.700Z,1.23
2022-09-29T11:59:06.924Z,1.00
2022-09-29T12:04:28.164Z,1.15
2022-09-29T12:09:47.515Z,1.13
2022-09-29T12:15:12.367Z,1.33
2022-09-29T12:20:33.988Z,1.20
2022-09-29T12:30:54.081Z,1.35
2022-09-29T12:36:32.209Z,1.42
2022-09-29T12:41:38.552Z,1.02
2022-09-29T12:46:56.935Z,1.15
2022-09-29T12:52:07.508Z,1.10
2022-09-29T12:57:17.938Z,0.90
2022-09-29T13:02:38.307Z,1.48
2022-09-29T13:08:05.328Z,1.67
2022-09-29T13:13:38.222Z,1.10
2022-09-29T13:19:29.652Z,1.60
2022-09-29T13:24:42.904Z,1.80
2022-09-29T13:30:00.773Z,1.38
2022-09-29T13:35:04.130Z,0.80
2022-09-29T13:40:11.436Z,1.40
2022-09-29T13:45:17.009Z,1.40
2022-09-29T13:50:48.238Z,0.77
2022-09-29T13:55:57.573Z,1.00
2022-09-29T14:01:10.695Z,0.90
2022-09-29T14:06:53.482Z,1.40
2022-09-29T14:11:51.775Z,1.27
2022-09-29T14:17:03.010Z,1.42
2022-09-29T14:22:26.641Z,1.05
2022-09-29T14:27:57.336Z,1.05
2022-09-29T14:33:12.519Z,1.20
2022-09-29T14:38:22.196Z,1.02
2022-09-29T14:43:50.996Z,1.30
2022-09-29T14:49:26.755Z,0.90
2022-09-29T14:54:47.532Z,1.35
2022-09-29T15:00:20.610Z,0.88
2022-09-29T15:05:30.915Z,1.33
2022-09-29T15:10:43.179Z,1.05
2022-09-29T15:15:48.530Z,1.20
2022-09-29T15:21:16.699Z,0.77
2022-09-29T15:26:24.146Z,0.82
2022-09-29T15:31:31.283Z,1.20
2022-09-29T15:36:38.257Z,0.80
2022-09-29T15:41:45.595Z,0.90
2022-09-29T15:46:50.012Z,1.20
2022-09-29T15:52:07.775Z,1.13
2022-09-29T15:58:05.843Z,1.33
2022-09-29T16:03:28.494Z,1.27
2022-09-29T16:08:33.890Z,1.75
2022-09-29T16:13:41.893Z,1.50
2022-09-29T16:18:48.706Z,1.40
2022-09-29T16:24:02.454Z,1.20
2022-09-29T16:29:19.332Z,1.50
2022-09-29T16:34:30.369Z,1.33
2022-09-29T16:39:47.917Z,1.20
2022-09-29T16:44:53.345Z,1.40
2022-09-29T16:50:14.458Z,1.50
2022-09-29T16:55:28.665Z,1.45
2022-09-29T17:00:30.993Z,2.17
2022-09-29T17:05:49.718Z,1.80
2022-09-29T17:10:53.749Z,1.40
2022-09-29T17:15:55.723Z,4.10
2022-09-29T17:20:57.778Z,2.78
2022-09-29T17:26:19.647Z,1.40
2022-09-29T17:31:21.992Z,1.20
2022-09-29T17:36:24.256Z,1.00
2022-09-29T17:41:26.249Z,1.50
2022-09-29T17:46:28.337Z,0.93
2022-09-29T17:51:30.336Z,1.50
2022-09-29T17:56:39.243Z,1.58
2022-09-29T18:01:41.405Z,1.10
2022-09-29T18:06:45.614Z,2.00
2022-09-29T18:11:48.316Z,1.75
2022-09-29T18:16:55.276Z,1.80
2022-09-29T18:21:58.518Z,1.10
2022-09-29T18:27:03.554Z,1.38
2022-09-29T18:32:10.148Z,1.30
2022-09-29T18:37:12.162Z,1.65
2022-09-29T18:42:14.306Z,1.30
2022-09-29T18:47:17.065Z,2.65
2022-09-29T18:52:19.532Z,2.25
2022-09-29T18:57:25.013Z,1.70
2022-09-29T19:02:35.004Z,1.80
2022-09-29T19:07:37.048Z,1.30
2022-09-29T19:12:38.962Z,1.55
2022-09-29T19:17:44.255Z,1.40
2022-09-29T19:22:52.922Z,1.33
2022-09-29T19:27:57.284Z,1.30
2022-09-29T19:33:03.038Z,1.58
2022-09-29T19:38:09.347Z,1.60
2022-09-29T19:43:13.429Z,1.13
2022-09-29T19:48:17.893Z,1.00
2022-09-29T19:53:21.104Z,1.00
2022-09-29T19:58:24.739Z,0.75
2022-09-29T20:03:42.983Z,1.00
2022-09-29T20:08:45.015Z,0.93
2022-09-29T20:13:51.128Z,0.75
2022-09-29T20:18:58.203Z,0.70
2022-09-29T20:24:05.193Z,0.52
2022-09-29T20:29:07.357Z,0.75
2022-09-29T20:34:11.984Z,0.75
2022-09-29T20:39:17.345Z,0.50
2022-09-29T20:44:23.805Z,0.57
2022-09-29T20:49:27.189Z,0.70
2022-09-29T20:54:33.229Z,0.60
2022-09-29T20:59:46.569Z,0.90
2022-09-29T21:04:48.779Z,0.52
2022-09-29T21:09:51.011Z,0.60
2022-09-29T21:14:56.294Z,0.60
2022-09-29T21:20:03.204Z,0.60
2022-09-29T21:25:06.596Z,0.68
2022-09-29T21:30:10.043Z,0.80
2022-09-29T21:35:12.434Z,0.52
2022-09-29T21:40:14.508Z,0.70
2022-09-29T21:45:16.860Z,0.60
2022-09-29T21:50:28.677Z,0.60
2022-09-29T21:55:30.610Z,0.70
2022-09-29T22:00:32.662Z,0.70
2022-09-29T22:05:35.203Z,0.68
2022-09-29T22:10:39.649Z,0.70
2022-09-29T22:15:42.424Z,0.75
2022-09-29T22:20:44.335Z,0.70
2022-09-29T22:25:46.424Z,0.60
2022-09-29T22:30:48.716Z,0.60
2022-09-29T22:35:56.768Z,0.80
2022-09-29T22:41:02.702Z,0.90
2022-09-29T22:46:06.780Z,1.10
2022-09-29T22:51:09.029Z,1.15
2022-09-29T22:56:14.396Z,1.10
2022-09-29T23:01:23.072Z,0.90
2022-09-29T23:06:25.305Z,0.98
2022-09-29T23:11:27.253Z,1.08
2022-09-29T23:16:29.390Z,1.20
2022-09-29T23:21:33.582Z,0.75
2022-09-29T23:26:38.915Z,0.82
2022-09-29T23:31:52.724Z,0.88
2022-09-29T23:36:54.967Z,0.90
2022-09-29T23:42:06.524Z,0.77
2022-09-29T23:47:14.123Z,0.52
2022-09-29T23:52:15.999Z,1.00
